Appomattox, Virginia
Current Conditions -  °F | °C
As of 6:55 PM on Saturday 25 Oct 2014 (Local Time) from K0V4 Reporting Station
Clear Clear  
Wind Chill: 18°   Ceiling: Unl
Heat Index: 18°   Visibility: 10mi
Dew Point:   Wind: 6mph
Humidity: 56%   Direction: 210°SSW
Pressure: 29.84"   Gusts: NA
Location:  37.36°N, 78.83°W
Report Text: K0V4 252255Z AUTO 21005KT 10SM CLR 18/09 A2984 RMK AO1 T01800091
Loading
Personal Weather Stations






























Interactive Weather Map
Tropical Storm Tracking
New forecast layout! Learn more

10-Day Weather Forecast

Advertisements
Track Severe Weather on mobile